Flight Track Log - Related Links

Times and Time Zones

All times are in EDT time to prevent confusion due to time zone crossing. See the SKW4772 flight status page for this flight to view local times or setup timezone preferences in your user account.

Time Position Orientation Groundspeed Altitude Reporting Facility
EDT Latitude Longitude Course Direction KTS MPH feet Rate Location/Type
Mon 02:14:57 PM 44.9281 -93.2397 North 186 214 2,800  Level FAA TRACON SMA TRACON (SMA)
Mon 02:15:38 PM 44.9642 -93.2333 30° Northeast 216 249 4,500 2,175 Climbing FAA TRACON SMA TRACON (SMA)
Mon 02:16:17 PM 45.0058 -93.1989 77° East 282 325 5,700 2,475 Climbing FAA TRACON SMA TRACON (SMA)
Mon 02:16:58 PM 45.0192 -93.1181 73° East 308 354 7,800 2,963 Climbing FAA TRACON SMA TRACON (SMA)
Mon 02:17:38 PM 45.0342 -93.0464 109° East 310 357 9,700 2,810 Climbing FAA TRACON SMA TRACON (SMA)
Mon 02:18:17 PM 45.0150 -92.9692 130° Southeast 320 368 11,500 2,127 Climbing FAA TRACON SMA TRACON (SMA)
Mon 02:18:57 PM 44.9792 -92.9086 130° Southeast 327 376 12,500 1,875 Climbing FAA TRACON SMA TRACON (SMA)
Mon 02:19:37 PM 44.9356 -92.8361 129° Southeast 349 402 14,000 2,325 Climbing FAA TRACON SMA TRACON (SMA)
Mon 02:20:17 PM 44.8931 -92.7631 129° Southeast 351 404 15,600 2,000 Climbing FAA TRACON SMA TRACON (SMA)
Mon 02:20:58 PM 44.8500 -92.6892 130° Southeast 354 407 16,700 1,704 Climbing FAA TRACON SMA TRACON (SMA)
Mon 02:21:38 PM 44.8106 -92.6219 130° Southeast 363 418 17,900 1,650 Climbing FAA TRACON SMA TRACON (SMA)
Mon 02:22:18 PM 44.7650 -92.5453 130° Southeast 370 426 18,900 1,443 Climbing FAA TRACON SMA TRACON (SMA)
Mon 02:22:57 PM 44.7236 -92.4753 129° Southeast 379 436 19,800 1,291 Climbing FAA TRACON SMA TRACON (SMA)
Mon 02:23:37 PM 44.6758 -92.3936 130° Southeast 391 450 20,600 1,575 Climbing FAA TRACON SMA TRACON (SMA)
Mon 02:24:17 PM 44.6272 -92.3125 129° Southeast 392 451 21,900 1,537 Climbing FAA TRACON SMA TRACON (SMA)
Mon 02:24:59 PM 44.5850 -92.2397 126° Southeast 392 451 22,700 1,275 Climbing FAA TRACON SMA TRACON (SMA)
Mon 02:25:37 PM 44.5403 -92.1544 126° Southeast 395 455 23,600 1,215 Climbing FAA TRACON SMA TRACON (SMA)
Mon 02:26:18 PM 44.4944 -92.0667 124° Southeast 404 465 24,300 963 Climbing FAA TRACON SMA TRACON (SMA)
Mon 02:26:58 PM 44.4550 -91.9861 128° Southeast 410 472 24,900 1,050 Climbing FAA TRACON SMA TRACON (SMA)
Mon 02:28:18 PM 44.3592 -91.8133 118° Southeast 410 472 26,400 943 Climbing Minneapolis Center
Mon 02:29:18 PM 44.3092 -91.6842 120° Southeast 410 472 27,100 650 Climbing Minneapolis Center
Mon 02:30:18 PM 44.2528 -91.5469 117° Southeast 405 466 27,700 550 Climbing Minneapolis Center
Mon 02:31:18 PM 44.1961 -91.3953 118° Southeast 415 478 28,200 550 Climbing Minneapolis Center
Mon 02:32:18 PM 44.1369 -91.2411 119° Southeast 434 499 28,800 743 Climbing Minneapolis Center
Mon 02:33:03 PM 44.0894 -91.1211 117° Southeast 436 502 29,500 857 Climbing Chicago Center
Mon 02:34:03 PM 44.0333 -90.9664 121° Southeast 428 493 30,300 800 Climbing Chicago Center
Mon 02:35:03 PM 43.9686 -90.8178 123° Southeast 439 505 31,100 750 Climbing Chicago Center
Mon 02:36:03 PM 43.9097 -90.6922 122° Southeast 444 511 31,800 650 Climbing Chicago Center
Mon 02:37:03 PM 43.8447 -90.5497 122° Southeast 439 505 32,400 600 Climbing Chicago Center
Mon 02:38:03 PM 43.7814 -90.4106 122° Southeast 439 505 33,000 300 Climbing Chicago Center
Mon 02:39:03 PM 43.7097 -90.2544 122° Southeast 439 505 33,000 -150 Level Chicago Center
Mon 02:40:03 PM 43.6483 -90.1214 123° Southeast 426 490 32,700 -700 Descending Chicago Center
Mon 02:41:03 PM 43.5867 -89.9889 123° Southeast 419 482 31,600 -850 Descending Chicago Center
Mon 02:42:03 PM 43.5308 -89.8708 123° Southeast 414 476 31,000 -300 Descending Chicago Center
Mon 02:43:03 PM 43.4731 -89.7475 123° Southeast 401 461 31,000  Level Chicago Center
Mon 02:44:03 PM 43.4172 -89.6300 124° Southeast 386 444 31,000  Level Chicago Center
Mon 02:45:03 PM 43.3589 -89.5125 122° Southeast 379 436 31,000  Level Chicago Center
Mon 02:46:03 PM 43.3028 -89.3897 124° Southeast 379 436 31,000  Level Chicago Center
Mon 02:47:03 PM 43.2444 -89.2728 122° Southeast 374 430 31,000  Level Chicago Center
Mon 02:48:03 PM 43.1881 -89.1506 124° Southeast 379 436 31,000  Level Chicago Center
Mon 02:49:03 PM 43.1294 -89.0311 123° Southeast 384 442 31,000  Level Chicago Center
Mon 02:50:03 PM 43.0708 -88.9094 123° Southeast 384 442 31,000  Level Chicago Center
Mon 02:51:03 PM 43.0056 -88.7708 124° Southeast 389 448 31,000 -300 Level Chicago Center
Mon 02:52:03 PM 42.9444 -88.6492 123° Southeast 394 453 30,400 -1,000 Descending Chicago Center
Mon 02:53:03 PM 42.8811 -88.5169 124° Southeast 406 467 29,000 -1,400 Descending Chicago Center
Mon 02:54:03 PM 42.8175 -88.3875 123° Southeast 412 474 27,600 -1,400 Descending Chicago Center
Mon 02:55:03 PM 42.7581 -88.2611 126° Southeast 412 474 26,200 -1,400 Descending Chicago Center
Mon 02:56:03 PM 42.6964 -88.1436 124° Southeast 391 450 24,800 -1,400 Descending Chicago Center
Mon 02:57:03 PM 42.6389 -88.0261 124° Southeast 380 437 23,400 -900 Descending Chicago Center
Mon 02:58:03 PM 42.5833 -87.9144 123° Southeast 370 426 23,000 -600 Descending Chicago Center
Mon 02:59:03 PM 42.5297 -87.8031 124° Southeast 363 418 22,200 -1,400 Descending Chicago Center
Mon 03:00:03 PM 42.4783 -87.7003 126° Southeast 347 399 20,200 -2,050 Descending Chicago Center
Mon 03:01:03 PM 42.4225 -87.5947 123° Southeast 337 388 18,100 -1,600 Descending Chicago Center
Mon 03:02:03 PM 42.3708 -87.4867 125° Southeast 337 388 17,000 -550 Descending Chicago Center
Mon 03:03:03 PM 42.3233 -87.3953 139° Southeast 337 388 17,000  Level Chicago Center
Mon 03:04:03 PM 42.2553 -87.3161 147° Southeast 318 366 17,000  Level Chicago Center
Mon 03:05:03 PM 42.1856 -87.2539 112° Southeast 318 366 17,000  Level Chicago Center
Mon 03:06:03 PM 42.1519 -87.1400 94° East 318 366 17,000  Level Chicago Center
Mon 03:07:03 PM 42.1450 -87.0031 89° East 356 410 17,000 -200 Level Chicago Center
Mon 03:08:03 PM 42.1467 -86.8742 94° East 356 410 16,600 -1,800 Descending Chicago Center
Mon 03:09:03 PM 42.1392 -86.7317 130° Southeast 361 415 13,400 -2,800 Descending Chicago Center
Mon 03:10:03 PM 42.0722 -86.6253 149° Southeast 361 415 11,000 -1,800 Descending Chicago Center
Mon 03:11:03 PM 42.0106 -86.5747 147° Southeast 323 372 9,800 -1,400 Descending Chicago Center
Mon 03:12:03 PM 41.9467 -86.5189 149° Southeast 301 346 8,200 -1,600 Descending Chicago Center
Mon 03:19:15 PM 41.7000 -86.3167 357° North  Level FlightAware Approximate
Mon 03:20:15 PM 41.7996 -86.3247 177° South  Level Estimated
Mon 03:21:15 PM 41.7000 -86.3167 357° North  Level FlightAware Approximate
Mon 03:22:15 PM 41.7792 -86.3230 177° South  Level Estimated
Mon 03:23:15 PM 41.7000 -86.3167 357° North  Level FlightAware Approximate
Mon 03:24:15 PM 41.7792 -86.3230 357° North  Level Estimated

Login

Don't have an account? Register now (free) for customized features, flight alerts, and more!